CW3643 Weather Reports


Display with metric or nautical units.
time (UTC)temp
F
wind
direction
speed
MPH
gust
MPH
rain 1hr
in
rain 24hr
in
rain mn
in
humidity
%
barometer
mb
20190422141019 66 274 14.0 22.0 0.00 0.00 0.00 68 1006.3
20190422140103 67 303 9.0 15.0 0.00 0.00 0.00 68 1006.2
20190422135021 68 282 7.0 14.0 0.00 0.00 0.00 67 1006.3
20190422134029 67 262 6.0 12.0 0.00 0.00 0.00 62 1006.2
20190422133028 67 300 6.0 11.0 0.00 0.00 0.00 65 1006.4
20190422132023 66 283 6.0 10.0 0.00 0.00 0.00 65 1006.6
20190422131030 66 287 7.0 13.0 0.00 0.00 0.00 65 1006.5
20190422130018 66 309 6.0 11.0 0.00 0.00 0.00 67 1006.7
20190422125014 66 300 7.0 10.0 0.00 0.00 0.00 66 1006.7
20190422124031 65 259 7.0 11.0 0.00 0.00 0.00 69 1006.8
20190422123027 66 313 8.0 13.0 0.00 0.00 0.00 68 1006.8
20190422122023 65 307 7.0 12.0 0.00 0.00 0.00 70 1006.9
20190422120028 66 325 10.0 15.0 0.00 0.00 0.00 67 1007.1
20190422115025 66 271 6.0 12.0 0.00 0.00 0.00 67 1007.2
20190422114030 66 324 9.0 13.0 0.00 0.00 0.00 66 1007.3
20190422113020 65 341 6.0 9.0 0.00 0.00 0.00 66 1007.5
20190422112016 65 318 5.0 12.0 0.00 0.00 0.00 66 1007.5
20190422111024 65 315 9.0 14.0 0.00 0.00 0.00 68 1007.7
20190422110017 65 302 9.0 0.0 0.00 0.00 0.00 68 1007.7
20190422104018 64 330 12.0 18.0 0.00 0.00 0.00 69 1008.1
20190422103018 64 350 10.0 15.0 0.00 0.00 0.00 72 1008.1
20190422102011 64 313 8.0 16.0 0.00 0.00 0.00 73 1008.2
20190422101015 63 297 10.0 14.0 0.00 0.00 0.00 74 1008.3
20190422100025 63 284 10.0 16.0 0.00 0.00 0.00 74 1008.3
20190422095030 63 322 9.0 14.0 0.00 0.00 0.00 75 1008.2
20190422094017 63 276 11.0 17.0 0.00 0.00 0.00 75 1008.2
20190422093013 62 340 10.0 16.0 0.00 0.00 0.00 78 1008.3
20190422092022 62 284 12.0 16.0 0.00 0.00 0.00 78 1008.2
20190422091013 61 322 9.0 17.0 0.00 0.00 0.00 79 1008.3
20190422090030 61 327 10.0 16.0 0.00 0.00 0.00 80 1008.4
20190422085022 61 296 9.0 18.0 0.00 0.00 0.00 80 1008.3
20190422084022 60 333 9.0 23.0 0.00 0.00 0.00 81 1008.4
20190422083030 60 336 13.0 19.0 0.00 0.00 0.00 81 1008.4
20190422082028 60 343 13.0 19.0 0.00 0.00 0.00 82 1008.5
20190422081013 60 295 13.0 19.0 0.00 0.00 0.00 83 1008.4
20190422080027 59 324 14.0 19.0 0.00 0.00 0.00 84 1008.4
20190422075013 59 328 12.0 22.0 0.00 0.00 0.00 85 1008.3
20190422074017 59 315 13.0 22.0 0.00 0.00 0.00 86 1008.4
20190422073012 58 304 13.0 22.0 0.00 0.00 0.00 87 1008.4
20190422072027 58 315 13.0 20.0 0.00 0.00 0.00 87 1008.5
20190422071028 58 327 15.0 21.0 0.00 0.00 0.00 88 1008.4
20190422070016 58 314 17.0 21.0 0.00 0.00 0.00 88 1008.4
20190422065026 57 302 16.0 21.0 0.00 0.00 0.00 88 1008.3
20190422064018 57 343 15.0 23.0 0.00 0.00 0.00 89 1008.2
20190422063018 57 316 13.0 20.0 0.00 0.00 0.00 89 1008.1
20190422062011 57 299 15.0 24.0 0.00 0.00 0.00 90 1008.2
20190422061018 57 288 15.0 23.0 0.00 0.00 0.00 90 1008.2
20190422060022 57 311 13.0 22.0 0.00 0.00 0.00 91 1008.3
20190422055036 57 323 13.0 17.0 0.00 0.00 0.00 91 1008.2
20190422054021 57 321 11.0 17.0 0.00 0.00 0.00 91 1008.2
20190422053012 56 328 10.0 14.0 0.00 0.00 0.00 91 1008.1
20190422052022 56 309 10.0 14.0 0.00 0.00 0.00 92 1008.1
20190422045014 56 337 9.0 13.0 0.00 0.00 0.00 90 1008.2
20190422044028 56 307 7.0 11.0 0.00 0.00 0.00 90 1008.2
20190422043016 56 328 6.0 12.0 0.00 0.00 0.00 90 1008.2
20190422041059 56 307 9.0 14.0 0.00 0.00 0.00 89 1008.4
20190422040017 56 308 6.0 10.0 0.00 0.00 0.00 88 1008.3
20190422035029 56 318 6.0 9.0 0.00 0.00 0.00 87 1008.5
20190422034024 56 309 9.0 11.0 0.00 0.00 0.00 87 1008.5
20190422033027 57 317 8.0 13.0 0.00 0.00 0.00 85 1008.7
20190422032017 57 307 9.0 13.0 0.00 0.00 0.00 82 1008.9
20190422030020 59 311 7.0 10.0 0.00 0.00 0.00 74 1009.1
20190422025024 60 281 6.0 8.0 0.00 0.00 0.00 71 1009.1
20190422024012 60 274 3.0 6.0 0.00 0.00 0.00 70 1009.2
20190422023018 61 229 1.0 7.0 0.00 0.00 0.00 68 1009.3
20190422022028 61 308 2.0 7.0 0.00 0.00 0.00 65 1009.4
20190422021012 62 157 1.0 7.0 0.00 0.00 0.00 61 1009.5
20190422020030 62 259 1.0 3.0 0.00 0.00 0.00 60 1009.6
20190422014029 62 358 1.0 8.0 0.00 0.00 0.00 58 1009.7
20190422013026 63 324 4.0 14.0 0.00 0.00 0.00 57 1009.7
20190422012015 63 323 8.0 13.0 0.00 0.00 0.00 56 1009.8
20190422011024 63 333 7.0 10.0 0.00 0.00 0.00 56 1009.9
20190422010025 63 342 7.0 11.0 0.00 0.00 0.00 55 1010.1
20190422005023 63 318 7.0 10.0 0.00 0.00 0.00 55 1010.3
20190422004026 64 359 7.0 10.0 0.00 0.00 0.00 54 1010.3
20190422003023 64 342 5.0 9.0 0.00 0.00 0.00 54 1010.5
20190422002016 64 336 6.0 8.0 0.00 0.00 0.00 54 1010.7
20190422001021 63 297 4.0 10.0 0.00 0.00 0.00 54 1010.8
20190422000023 63 345 4.0 5.0 0.00 0.00 0.00 55 1010.9
20190421235014 63 345 327.0 327.0 0.00 0.00 0.00 56 1010.8
20190421234028 63 345 2.0 4.0 0.00 0.00 0.00 56 1011.0
20190421233012 63 297 0.0 8.0 0.00 0.00 0.00 56 1011.0
20190421232015 63 14 3.0 5.0 0.00 0.00 0.00 56 1011.1
20190421231014 63 98 2.0 6.0 0.00 0.00 0.00 56 1011.3
20190421230028 63 67 1.0 8.0 0.00 0.00 0.00 55 1011.3
20190421225020 64 51 3.0 8.0 0.00 0.00 0.00 54 1011.4
20190421224012 64 55 3.0 13.0 0.00 0.00 0.00 51 1011.6
20190421223030 64 359 11.0 20.0 0.00 0.00 0.00 52 1011.6
20190421222026 63 5 10.0 17.0 0.00 0.00 0.00 54 1011.6
20190421221013 63 311 7.0 14.0 0.00 0.00 0.00 55 1011.9
20190421220026 63 326 6.0 10.0 0.00 0.00 0.00 55 1012.1
20190421215020 63 10 4.0 10.0 0.00 0.00 0.00 55 1012.2
20190421214014 63 23 4.0 13.0 0.00 0.00 0.00 55 1012.2
20190421213024 63 340 7.0 17.0 0.00 0.00 0.00 56 1012.1
20190421212016 63 334 12.0 18.0 0.00 0.00 0.00 56 1012.0
20190421211027 63 293 12.0 17.0 0.00 0.00 0.00 56 1012.1
20190421205021 63 324 12.0 16.0 0.00 0.00 0.00 57 1011.9
20190421204025 63 344 11.0 19.0 0.00 0.00 0.00 57 1011.8
20190421203016 63 324 12.0 20.0 0.00 0.00 0.00 57 1011.8
20190421202023 63 314 12.0 18.0 0.00 0.00 0.00 57 1011.7
20190421201016 64 335 13.0 19.0 0.00 0.00 0.00 57 1011.7
20190421200028 64 321 13.0 19.0 0.00 0.00 0.00 56 1011.6
20190421195015 64 320 13.0 22.0 0.00 0.00 0.00 55 1011.6
20190421194023 64 337 14.0 26.0 0.00 0.00 0.00 56 1011.4
20190421193015 64 351 14.0 22.0 0.00 0.00 0.00 56 1011.4
20190421192022 64 335 15.0 23.0 0.00 0.00 0.00 55 1011.4
20190421191017 65 345 12.0 20.0 0.00 0.00 0.00 56 1011.3
20190421190011 65 326 12.0 21.0 0.00 0.00 0.00 55 1011.3
20190421185020 65 18 10.0 29.0 0.00 0.00 0.00 54 1011.1
20190421184019 66 343 11.0 23.0 0.00 0.00 0.00 54 1011.2
20190421183030 66 313 10.0 26.0 0.00 0.00 0.00 53 1011.2
20190421181025 67 355 16.0 25.0 0.00 0.00 0.00 54 1011.1
20190421180025 67 335 17.0 23.0 0.00 0.00 0.00 54 1011.1
20190421175028 67 341 16.0 27.0 0.00 0.00 0.00 53 1011.0
20190421174029 68 336 15.0 24.0 0.00 0.00 0.00 52 1011.0
20190421173031 68 338 17.0 22.0 0.00 0.00 0.00 53 1011.1
20190421172022 69 306 16.0 23.0 0.00 0.00 0.00 53 1011.1
20190421171020 69 327 13.0 28.0 0.00 0.00 0.00 52 1011.1
20190421170030 69 3 9.0 21.0 0.00 0.00 0.00 51 1011.1
20190421165215 70 334 8.0 20.0 0.00 0.00 0.00 51 1011.0
20190421163020 70 328 12.0 20.0 0.00 0.00 0.00 50 1011.0
20190421162030 71 12 9.0 22.0 0.00 0.00 0.00 51 1011.1
20190421161014 71 351 6.0 23.0 0.00 0.00 0.00 52 1011.0
20190421155020 71 350 14.0 20.0 0.00 0.00 0.00 49 1011.3
20190421154025 71 3 11.0 16.0 0.00 0.00 0.00 49 1011.3
20190421153014 71 329 9.0 21.0 0.00 0.00 0.00 49 1011.3
20190421152014 71 335 8.0 17.0 0.00 0.00 0.00 48 1011.4
20190421151027 71 60 7.0 19.0 0.00 0.00 0.00 50 1011.6
20190421150031 72 43 7.0 17.0 0.00 0.00 0.00 51 1011.6
20190421145017 72 304 9.0 17.0 0.00 0.00 0.00 50 1011.8
20190421144029 72 342 8.0 13.0 0.00 0.00 0.00 49 1011.9
20190421143015 72 92 3.0 7.0 0.00 0.00 0.00 49 1012.0
20190421142027 72 181 1.0 8.0 0.00 0.00 0.00 46 1012.3